Venividivici — ZCPL9 — position and weather

sailwx.info

Track history (hours):
 
Tides and Currents Weather Stations Pressure Air Temp Water Temp Dewpoint Dewpoint Depression Visibility Wind Speed Wind Dir Waves Ship Positions

Venividivici

Last reported at 2014-Jul-31 06:25 UTC. Time now 2014-Aug-02 06:39 UTC.
Position N 42°55' E 007°12'.

Length 40 m; draft 2 m.

MMSI: 319081000.

Date/timePositionNaut miles runAvg speedWind from/ knotsBaromVisibWave heightAir tempDewpointWater temp
2014-Jul-31 06:25N 42°55' E 007°12'2327.3
2014-Jul-31 05:33N 43°12' E 006°50'10 9.9
2014-Jul-31 04:33N 43°16' E 006°38'0 0.0
2014-Jul-31 03:31N 43°16' E 006°38'0 0.0
2014-Jul-31 02:17N 43°16' E 006°38'0 0.0
2014-Jul-31 01:32N 43°16' E 006°38'0 0.0
2014-Jul-31 00:33N 43°16' E 006°38'0 0.0
2014-Jul-30 23:28N 43°16' E 006°38'0 0.0
2014-Jul-30 22:28N 43°16' E 006°38'0 0.0
2014-Jul-30 21:32N 43°16' E 006°38'0 0.0
2014-Jul-30 20:30N 43°16' E 006°38'0 0.0
2014-Jul-30 19:30N 43°16' E 006°38'0 0.0
2014-Jul-30 18:31N 43°16' E 006°38'4 3.7
2014-Jul-30 17:33N 43°17' E 006°42'4 3.8
2014-Jul-30 16:33N 43°13' E 006°40'0 0.1
2014-Jul-30 15:33N 43°13' E 006°40'0 0.0
2014-Jul-30 14:31N 43°13' E 006°40'4 4.2
2014-Jul-30 13:33N 43°17' E 006°41'4 0.2
2014-Jul-29 18:11N 43°16' E 006°35'5 8.3
2014-Jul-29 17:33N 43°15' E 006°42'3 2.5
2014-Jul-29 16:25N 43°12' E 006°41'0 0.0
2014-Jul-29 15:23N 43°12' E 006°41'0 0.0
2014-Jul-29 14:32N 43°12' E 006°41'0 0.0
2014-Jul-29 13:30N 43°12' E 006°41'0 0.0
2014-Jul-29 12:33N 43°12' E 006°41'5 0.2
2014-Jul-28 13:33N 43°17' E 006°38'2322.5
2014-Jul-28 12:31N 43°32' E 007°03'1919.4
2014-Jul-28 11:33N 43°42' E 007°24'2 0.1
2014-Jul-27 17:29N 43°44' E 007°26'2122.3
2014-Jul-27 16:33N 43°32' E 007°03'1 1.1
2014-Jul-27 15:24N 43°33' E 007°02'0 0.0
2014-Jul-27 14:19N 43°33' E 007°02'0 0.4
2014-Jul-27 13:28N 43°32' E 007°02'0 0.0
2014-Jul-27 12:28N 43°32' E 007°02'0 0.0
2014-Jul-27 11:29N 43°32' E 007°02'0 0.0
2014-Jul-27 10:24N 43°32' E 007°02'0 0.0
2014-Jul-27 09:19N 43°32' E 007°02'0 0.0
2014-Jul-27 07:32N 43°32' E 007°02'0 0.0
2014-Jul-27 06:26N 43°32' E 007°02'0 0.0
2014-Jul-27 05:33N 43°32' E 007°02'0 0.0
2014-Jul-27 04:28N 43°32' E 007°02'0 0.0
2014-Jul-27 03:28N 43°32' E 007°02'0 0.0
2014-Jul-27 02:05N 43°32' E 007°02'0 0.0
2014-Jul-27 01:12N 43°32' E 007°02'0 0.0
2014-Jul-27 00:24N 43°32' E 007°02'0 0.0
2014-Jul-26 22:26N 43°32' E 007°02'0 0.0
2014-Jul-26 21:26N 43°32' E 007°02'0 0.0
2014-Jul-26 20:33N 43°32' E 007°02'0 0.0
2014-Jul-26 19:28N 43°32' E 007°02'4 4.1
2014-Jul-26 18:31N 43°30' E 006°57'0 0.0
2014-Jul-26 17:25N 43°30' E 006°57'0 0.0
2014-Jul-26 16:26N 43°30' E 006°57'0 0.0
2014-Jul-26 13:33N 43°31' E 006°57'4 2.9
2014-Jul-26 12:13N 43°32' E 007°02'0 0.0
2014-Jul-26 10:15N 43°32' E 007°02'0 0.0
2014-Jul-26 09:33N 43°32' E 007°02'0 0.0
2014-Jul-26 08:04N 43°32' E 007°02'0 0.0
2014-Jul-26 07:17N 43°32' E 007°02'0 0.0
2014-Jul-26 06:26N 43°32' E 007°02'0 0.0
2014-Jul-26 05:24N 43°32' E 007°02'0 0.0
2014-Jul-25 23:28N 43°32' E 007°02'0 0.0
2014-Jul-25 22:29N 43°32' E 007°02'0 0.0
2014-Jul-25 20:24N 43°32' E 007°02'0 0.0
2014-Jul-25 18:31N 43°32' E 007°02'0 0.1
2014-Jul-25 15:32N 43°32' E 007°02'1 1.0
2014-Jul-25 14:28N 43°32' E 007°03'0 0.0
2014-Jul-25 13:31N 43°32' E 007°03'2323.6
2014-Jul-25 12:33N 43°17' E 006°39'1 0.0
2014-Jul-24 15:29N 43°16' E 006°38'3 3.5
2014-Jul-24 14:34N 43°15' E 006°42'2 1.9
2014-Jul-24 13:33N 43°13' E 006°40'0 0.0
2014-Jul-24 12:33N 43°13' E 006°40'4 3.1
2014-Jul-24 11:22N 43°17' E 006°38'0 0.0
2014-Jul-24 10:23N 43°17' E 006°38'0 0.0
2014-Jul-24 09:33N 43°17' E 006°38'0 0.0
2014-Jul-24 08:33N 43°17' E 006°38'0 0.0
2014-Jul-24 07:31N 43°17' E 006°38'0 0.0
2014-Jul-24 06:32N 43°17' E 006°38'0 0.0
2014-Jul-24 05:32N 43°17' E 006°38'0 0.0
2014-Jul-24 04:30N 43°17' E 006°38'0 0.0
2014-Jul-24 03:31N 43°17' E 006°38'0 0.0
2014-Jul-24 02:31N 43°17' E 006°38'0 0.0
2014-Jul-24 01:32N 43°17' E 006°38'0 0.0
2014-Jul-24 00:27N 43°17' E 006°38'0 0.0
2014-Jul-23 23:33N 43°17' E 006°38'0 0.0
2014-Jul-23 22:19N 43°17' E 006°38'0 0.0
2014-Jul-23 21:29N 43°17' E 006°38'0 0.0
2014-Jul-23 20:32N 43°17' E 006°38'0 0.0
2014-Jul-23 19:27N 43°17' E 006°38'1 0.8
2014-Jul-23 18:33N 43°17' E 006°39'1 0.7
2014-Jul-23 17:27N 43°16' E 006°40'0 0.0
2014-Jul-23 16:28N 43°16' E 006°40'0 0.0
2014-Jul-23 15:31N 43°16' E 006°40'0 0.0
2014-Jul-23 14:32N 43°16' E 006°40'0 0.0
2014-Jul-23 13:33N 43°16' E 006°40'0 0.0
2014-Jul-23 12:33N 43°16' E 006°40'1 1.0
2014-Jul-23 11:33N 43°16' E 006°38'1 0.0
2014-Jul-22 17:33N 43°17' E 006°39'3 3.3
2014-Jul-22 16:32N 43°14' E 006°40'0 0.0
2014-Jul-22 15:33N 43°14' E 006°40'0 0.0
2014-Jul-22 14:33N 43°14' E 006°40'0 0.0
2014-Jul-22 13:28N 43°14' E 006°40'0 0.0
2014-Jul-22 12:33N 43°14' E 006°40'3 2.4
2014-Jul-22 11:15N 43°16' E 006°38'0 0.6
2014-Jul-22 10:29N 43°16' E 006°38'1314.0
2014-Jul-22 09:34N 43°24' E 006°52'11 4.6
2014-Jul-22 07:05N 43°33' E 007°01'0 0.0
2014-Jul-21 22:14N 43°33' E 007°01'0 0.0
2014-Jul-21 19:49N 43°33' E 007°01'0 0.0
2014-Jul-21 14:11N 43°33' E 007°01'0 0.0
2014-Jul-21 13:26N 43°33' E 007°01'  
Track history (hours):
 
Tides and Currents Weather Stations Pressure Air Temp Water Temp Dewpoint Dewpoint Depression Visibility Wind Speed Wind Dir Waves Ship Positions

Venividivici

Last reported at 2014-Jul-31 06:25 UTC. Time now 2014-Aug-02 06:39 UTC.
Position N 42°55' E 007°12'.

Length 40 m; draft 2 m.

MMSI: 319081000.

Date/timePositionNaut miles runAvg speedWind from/ knotsBaromVisibWave heightAir tempDewpointWater temp
2014-Jul-31 06:25N 42°55' E 007°12'2327.3
2014-Jul-31 05:33N 43°12' E 006°50'10 9.9
2014-Jul-31 04:33N 43°16' E 006°38'0 0.0
2014-Jul-31 03:31N 43°16' E 006°38'0 0.0
2014-Jul-31 02:17N 43°16' E 006°38'0 0.0
2014-Jul-31 01:32N 43°16' E 006°38'0 0.0
2014-Jul-31 00:33N 43°16' E 006°38'0 0.0
2014-Jul-30 23:28N 43°16' E 006°38'0 0.0
2014-Jul-30 22:28N 43°16' E 006°38'0 0.0
2014-Jul-30 21:32N 43°16' E 006°38'0 0.0
2014-Jul-30 20:30N 43°16' E 006°38'0 0.0
2014-Jul-30 19:30N 43°16' E 006°38'0 0.0
2014-Jul-30 18:31N 43°16' E 006°38'4 3.7
2014-Jul-30 17:33N 43°17' E 006°42'4 3.8
2014-Jul-30 16:33N 43°13' E 006°40'0 0.1
2014-Jul-30 15:33N 43°13' E 006°40'0 0.0
2014-Jul-30 14:31N 43°13' E 006°40'4 4.2
2014-Jul-30 13:33N 43°17' E 006°41'4 0.2
2014-Jul-29 18:11N 43°16' E 006°35'5 8.3
2014-Jul-29 17:33N 43°15' E 006°42'3 2.5
2014-Jul-29 16:25N 43°12' E 006°41'0 0.0
2014-Jul-29 15:23N 43°12' E 006°41'0 0.0
2014-Jul-29 14:32N 43°12' E 006°41'0 0.0
2014-Jul-29 13:30N 43°12' E 006°41'0 0.0
2014-Jul-29 12:33N 43°12' E 006°41'5 0.2
2014-Jul-28 13:33N 43°17' E 006°38'2322.5
2014-Jul-28 12:31N 43°32' E 007°03'1919.4
2014-Jul-28 11:33N 43°42' E 007°24'2 0.1
2014-Jul-27 17:29N 43°44' E 007°26'2122.3
2014-Jul-27 16:33N 43°32' E 007°03'1 1.1
2014-Jul-27 15:24N 43°33' E 007°02'0 0.0
2014-Jul-27 14:19N 43°33' E 007°02'0 0.4
2014-Jul-27 13:28N 43°32' E 007°02'0 0.0
2014-Jul-27 12:28N 43°32' E 007°02'0 0.0
2014-Jul-27 11:29N 43°32' E 007°02'0 0.0
2014-Jul-27 10:24N 43°32' E 007°02'0 0.0
2014-Jul-27 09:19N 43°32' E 007°02'0 0.0
2014-Jul-27 07:32N 43°32' E 007°02'0 0.0
2014-Jul-27 06:26N 43°32' E 007°02'0 0.0
2014-Jul-27 05:33N 43°32' E 007°02'0 0.0
2014-Jul-27 04:28N 43°32' E 007°02'0 0.0
2014-Jul-27 03:28N 43°32' E 007°02'0 0.0
2014-Jul-27 02:05N 43°32' E 007°02'0 0.0
2014-Jul-27 01:12N 43°32' E 007°02'0 0.0
2014-Jul-27 00:24N 43°32' E 007°02'0 0.0
2014-Jul-26 22:26N 43°32' E 007°02'0 0.0
2014-Jul-26 21:26N 43°32' E 007°02'0 0.0
2014-Jul-26 20:33N 43°32' E 007°02'0 0.0
2014-Jul-26 19:28N 43°32' E 007°02'4 4.1
2014-Jul-26 18:31N 43°30' E 006°57'0 0.0
2014-Jul-26 17:25N 43°30' E 006°57'0 0.0
2014-Jul-26 16:26N 43°30' E 006°57'0 0.0
2014-Jul-26 13:33N 43°31' E 006°57'4 2.9
2014-Jul-26 12:13N 43°32' E 007°02'0 0.0
2014-Jul-26 10:15N 43°32' E 007°02'0 0.0
2014-Jul-26 09:33N 43°32' E 007°02'0 0.0
2014-Jul-26 08:04N 43°32' E 007°02'0 0.0
2014-Jul-26 07:17N 43°32' E 007°02'0 0.0
2014-Jul-26 06:26N 43°32' E 007°02'0 0.0
2014-Jul-26 05:24N 43°32' E 007°02'0 0.0
2014-Jul-25 23:28N 43°32' E 007°02'0 0.0
2014-Jul-25 22:29N 43°32' E 007°02'0 0.0
2014-Jul-25 20:24N 43°32' E 007°02'0 0.0
2014-Jul-25 18:31N 43°32' E 007°02'0 0.1
2014-Jul-25 15:32N 43°32' E 007°02'1 1.0
2014-Jul-25 14:28N 43°32' E 007°03'0 0.0
2014-Jul-25 13:31N 43°32' E 007°03'2323.6
2014-Jul-25 12:33N 43°17' E 006°39'1 0.0
2014-Jul-24 15:29N 43°16' E 006°38'3 3.5
2014-Jul-24 14:34N 43°15' E 006°42'2 1.9
2014-Jul-24 13:33N 43°13' E 006°40'0 0.0
2014-Jul-24 12:33N 43°13' E 006°40'4 3.1
2014-Jul-24 11:22N 43°17' E 006°38'0 0.0
2014-Jul-24 10:23N 43°17' E 006°38'0 0.0
2014-Jul-24 09:33N 43°17' E 006°38'0 0.0
2014-Jul-24 08:33N 43°17' E 006°38'0 0.0
2014-Jul-24 07:31N 43°17' E 006°38'0 0.0
2014-Jul-24 06:32N 43°17' E 006°38'0 0.0
2014-Jul-24 05:32N 43°17' E 006°38'0 0.0
2014-Jul-24 04:30N 43°17' E 006°38'0 0.0
2014-Jul-24 03:31N 43°17' E 006°38'0 0.0
2014-Jul-24 02:31N 43°17' E 006°38'0 0.0
2014-Jul-24 01:32N 43°17' E 006°38'0 0.0
2014-Jul-24 00:27N 43°17' E 006°38'0 0.0
2014-Jul-23 23:33N 43°17' E 006°38'0 0.0
2014-Jul-23 22:19N 43°17' E 006°38'0 0.0
2014-Jul-23 21:29N 43°17' E 006°38'0 0.0
2014-Jul-23 20:32N 43°17' E 006°38'0 0.0
2014-Jul-23 19:27N 43°17' E 006°38'1 0.8
2014-Jul-23 18:33N 43°17' E 006°39'1 0.7
2014-Jul-23 17:27N 43°16' E 006°40'0 0.0
2014-Jul-23 16:28N 43°16' E 006°40'0 0.0
2014-Jul-23 15:31N 43°16' E 006°40'0 0.0
2014-Jul-23 14:32N 43°16' E 006°40'0 0.0
2014-Jul-23 13:33N 43°16' E 006°40'0 0.0
2014-Jul-23 12:33N 43°16' E 006°40'1 1.0
2014-Jul-23 11:33N 43°16' E 006°38'1 0.0
2014-Jul-22 17:33N 43°17' E 006°39'3 3.3
2014-Jul-22 16:32N 43°14' E 006°40'0 0.0
2014-Jul-22 15:33N 43°14' E 006°40'0 0.0
2014-Jul-22 14:33N 43°14' E 006°40'0 0.0
2014-Jul-22 13:28N 43°14' E 006°40'0 0.0
2014-Jul-22 12:33N 43°14' E 006°40'3 2.4
2014-Jul-22 11:15N 43°16' E 006°38'0 0.6
2014-Jul-22 10:29N 43°16' E 006°38'1314.0
2014-Jul-22 09:34N 43°24' E 006°52'11 4.6
2014-Jul-22 07:05N 43°33' E 007°01'0 0.0
2014-Jul-21 22:14N 43°33' E 007°01'0 0.0
2014-Jul-21 19:49N 43°33' E 007°01'0 0.0
2014-Jul-21 14:11N 43°33' E 007°01'0 0.0
2014-Jul-21 13:26N 43°33' E 007°01'  

Dump ship's entire track history